createdAt,value
2022-11-16T00:00:25.807Z,7.64
2022-11-16T00:03:28.511Z,7.59
2022-11-16T00:06:31.402Z,7.59
2022-11-16T00:09:35.850Z,7.41
2022-11-16T00:12:39.159Z,7.47
2022-11-16T00:15:41.904Z,7.61
2022-11-16T00:18:44.992Z,7.67
2022-11-16T00:21:50.164Z,7.42
2022-11-16T00:24:53.170Z,7.71
2022-11-16T00:27:56.079Z,7.50
2022-11-16T00:30:59.701Z,7.56
2022-11-16T00:34:02.484Z,7.48
2022-11-16T00:37:05.241Z,7.52
2022-11-16T00:40:08.486Z,7.67
2022-11-16T00:43:11.275Z,7.39
2022-11-16T00:46:14.053Z,7.48
2022-11-16T00:49:16.815Z,7.50
2022-11-16T00:52:19.585Z,7.39
2022-11-16T00:55:22.385Z,7.42
2022-11-16T00:58:25.109Z,7.47
2022-11-16T01:01:27.984Z,7.58
2022-11-16T01:04:30.775Z,7.52
2022-11-16T01:07:35.030Z,7.60
2022-11-16T01:10:39.374Z,7.41
2022-11-16T01:13:42.269Z,7.26
2022-11-16T01:16:44.948Z,7.39
2022-11-16T01:19:47.710Z,7.39
2022-11-16T01:22:50.502Z,7.16
2022-11-16T01:25:59.470Z,7.39
2022-11-16T01:29:02.199Z,7.38
2022-11-16T01:32:05.043Z,7.27
2022-11-16T01:35:08.368Z,7.18
2022-11-16T01:38:11.225Z,7.11
2022-11-16T01:41:15.158Z,7.37
2022-11-16T01:44:33.213Z,7.30
2022-11-16T01:47:38.509Z,7.47
2022-11-16T01:50:44.308Z,7.32
2022-11-16T01:53:47.092Z,7.37
2022-11-16T01:56:49.989Z,7.22
2022-11-16T01:59:53.860Z,7.38
2022-11-16T02:02:56.682Z,7.47
2022-11-16T02:06:18.685Z,7.38
2022-11-16T02:09:26.181Z,7.59
2022-11-16T02:12:36.145Z,7.38
2022-11-16T02:15:44.342Z,7.20
2022-11-16T02:19:05.657Z,7.18
2022-11-16T02:22:26.978Z,7.22
2022-11-16T02:25:48.238Z,7.27
2022-11-16T02:29:09.594Z,7.03
2022-11-16T02:32:18.487Z,6.99
2022-11-16T02:35:34.766Z,7.01
2022-11-16T02:38:38.902Z,6.99
2022-11-16T02:41:42.358Z,6.82
2022-11-16T02:44:47.142Z,7.05
2022-11-16T02:47:53.278Z,6.98
2022-11-16T02:50:56.070Z,6.74
2022-11-16T02:54:06.259Z,6.73
2022-11-16T02:57:09.004Z,6.77
2022-11-16T03:00:13.382Z,6.73
2022-11-16T03:03:23.201Z,6.77
2022-11-16T03:06:32.072Z,6.74
2022-11-16T03:09:35.181Z,6.66
2022-11-16T03:12:38.222Z,6.63
2022-11-16T03:15:41.149Z,6.57
2022-11-16T03:18:44.292Z,6.35
2022-11-16T03:22:00.532Z,6.31
2022-11-16T03:25:03.755Z,6.37
2022-11-16T03:28:11.354Z,6.39
2022-11-16T03:31:15.038Z,6.51
2022-11-16T03:34:19.120Z,6.64
2022-11-16T03:37:21.943Z,6.39
2022-11-16T03:40:25.092Z,6.33
2022-11-16T03:43:28.004Z,6.29
2022-11-16T03:46:30.815Z,6.27
2022-11-16T03:49:33.637Z,6.32
2022-11-16T03:52:36.463Z,6.30
2022-11-16T03:55:39.289Z,6.25
2022-11-16T03:58:42.157Z,6.21
2022-11-16T04:01:45.188Z,6.28
2022-11-16T04:04:48.067Z,6.22
2022-11-16T04:07:53.700Z,6.12
2022-11-16T04:10:56.713Z,6.07
2022-11-16T04:13:59.597Z,6.19
2022-11-16T04:17:02.367Z,6.19
2022-11-16T04:20:06.009Z,6.41
2022-11-16T04:23:14.037Z,6.25
2022-11-16T04:26:16.992Z,6.22
2022-11-16T04:29:19.915Z,6.21
2022-11-16T04:32:23.090Z,6.34
2022-11-16T04:35:26.055Z,6.26
2022-11-16T04:38:30.588Z,6.21
2022-11-16T04:41:36.453Z,6.00
2022-11-16T04:44:42.277Z,6.16
2022-11-16T04:47:45.302Z,6.20
2022-11-16T04:50:49.521Z,6.12
2022-11-16T04:53:52.543Z,6.06
2022-11-16T04:56:55.499Z,5.94
2022-11-16T04:59:58.467Z,5.93
2022-11-16T05:03:02.010Z,5.93
2022-11-16T05:06:05.226Z,5.84
2022-11-16T05:09:08.635Z,5.85
2022-11-16T05:12:12.567Z,5.81
2022-11-16T05:15:15.666Z,6.00
2022-11-16T05:18:18.652Z,5.82
2022-11-16T05:21:21.758Z,6.01
2022-11-16T05:24:25.232Z,5.73
2022-11-16T05:27:29.130Z,5.66
2022-11-16T05:30:32.667Z,5.45
2022-11-16T05:33:36.071Z,5.52
2022-11-16T05:36:44.511Z,5.52
2022-11-16T05:39:48.396Z,5.49
2022-11-16T05:42:51.947Z,5.48
2022-11-16T05:45:56.223Z,5.47
2022-11-16T05:49:02.539Z,5.51
2022-11-16T05:52:09.101Z,5.53
2022-11-16T05:55:12.871Z,5.59
2022-11-16T05:58:17.582Z,5.47
2022-11-16T06:01:24.618Z,5.65
2022-11-16T06:04:28.473Z,5.64
2022-11-16T06:07:39.734Z,5.59
2022-11-16T06:10:46.669Z,5.66
2022-11-16T06:13:50.477Z,5.64
2022-11-16T06:16:56.745Z,5.66
2022-11-16T06:20:10.544Z,5.44
2022-11-16T06:23:16.927Z,5.52
2022-11-16T06:26:24.582Z,5.65
2022-11-16T06:29:28.620Z,5.60
2022-11-16T06:32:32.128Z,5.51
2022-11-16T06:35:36.114Z,5.46
2022-11-16T06:38:40.291Z,5.53
2022-11-16T06:41:50.638Z,5.53
2022-11-16T06:44:54.610Z,5.43
2022-11-16T06:47:58.763Z,5.28
2022-11-16T06:51:01.873Z,5.45
2022-11-16T06:54:04.865Z,5.44
2022-11-16T06:57:07.691Z,5.64
2022-11-16T07:00:12.304Z,5.72
2022-11-16T07:03:16.111Z,5.62
2022-11-16T07:06:21.878Z,5.25
2022-11-16T07:09:25.529Z,5.42
2022-11-16T07:12:29.159Z,5.51
2022-11-16T07:15:33.280Z,5.48
2022-11-16T07:18:37.808Z,5.37
2022-11-16T07:21:41.487Z,5.46
2022-11-16T07:24:47.659Z,5.52
2022-11-16T07:27:54.658Z,5.58
2022-11-16T07:31:05.137Z,5.58
2022-11-16T07:34:10.491Z,5.64
2022-11-16T07:37:14.831Z,5.38
2022-11-16T07:40:19.662Z,5.46
2022-11-16T07:43:23.338Z,5.61
2022-11-16T07:46:45.950Z,5.56
2022-11-16T07:49:54.373Z,5.56
2022-11-16T07:52:57.949Z,5.74
2022-11-16T07:56:01.597Z,5.80
2022-11-16T07:59:04.396Z,5.71
2022-11-16T08:02:07.561Z,5.66
2022-11-16T08:05:10.539Z,5.76
2022-11-16T08:08:13.714Z,5.71
2022-11-16T08:11:17.538Z,5.73
2022-11-16T08:14:20.319Z,5.56
2022-11-16T08:17:24.835Z,5.51
2022-11-16T08:20:27.631Z,5.48
2022-11-16T08:23:30.574Z,5.71
2022-11-16T08:26:33.436Z,5.66
2022-11-16T08:29:36.302Z,5.59
2022-11-16T08:32:39.337Z,5.55
2022-11-16T08:35:42.092Z,5.63
2022-11-16T08:38:48.564Z,5.62
2022-11-16T08:41:53.125Z,5.57
2022-11-16T08:44:56.158Z,5.49
2022-11-16T08:48:04.092Z,5.66
2022-11-16T08:51:23.255Z,5.73
2022-11-16T08:54:25.982Z,5.55
2022-11-16T08:57:28.734Z,5.63
2022-11-16T09:00:31.470Z,5.53
2022-11-16T09:03:34.680Z,5.60
2022-11-16T09:06:37.410Z,5.50
2022-11-16T09:09:40.214Z,5.56
2022-11-16T09:12:42.939Z,5.56
2022-11-16T09:15:45.891Z,5.58
2022-11-16T09:18:49.493Z,5.54
2022-11-16T09:21:53.603Z,5.43
2022-11-16T09:24:56.343Z,5.71
2022-11-16T09:28:00.309Z,5.44
2022-11-16T09:31:03.847Z,5.21
2022-11-16T09:34:06.695Z,5.25
2022-11-16T09:37:09.495Z,5.31
2022-11-16T09:40:12.715Z,5.33
2022-11-16T09:43:21.554Z,5.32
2022-11-16T09:46:32.789Z,5.41
2022-11-16T09:49:43.460Z,5.17
2022-11-16T09:52:47.233Z,5.24
2022-11-16T09:55:51.085Z,5.20
2022-11-16T09:58:54.142Z,5.22
2022-11-16T10:01:56.876Z,5.20
2022-11-16T10:04:59.626Z,5.10
2022-11-16T10:08:10.371Z,5.16
2022-11-16T10:11:31.673Z,5.17
2022-11-16T10:14:52.986Z,5.22
2022-11-16T10:17:59.209Z,5.38
2022-11-16T10:21:20.448Z,5.42
2022-11-16T10:24:28.170Z,5.19
2022-11-16T10:27:54.099Z,5.09
2022-11-16T10:31:35.309Z,5.16
2022-11-16T10:34:45.187Z,5.17
2022-11-16T10:37:51.749Z,5.28
2022-11-16T10:41:01.912Z,5.35
2022-11-16T10:44:09.528Z,5.29
2022-11-16T10:47:33.774Z,5.40
2022-11-16T10:50:46.971Z,5.30
2022-11-16T10:53:50.835Z,5.26
2022-11-16T10:57:04.748Z,5.17
2022-11-16T11:00:12.606Z,5.35
2022-11-16T11:03:15.911Z,5.20
2022-11-16T11:06:18.719Z,5.33
2022-11-16T11:09:23.799Z,5.40
2022-11-16T11:12:27.073Z,5.29
2022-11-16T11:15:31.012Z,5.10
2022-11-16T11:18:33.741Z,5.17
2022-11-16T11:21:36.504Z,5.02
2022-11-16T11:24:45.096Z,5.24
2022-11-16T11:27:48.281Z,5.31
2022-11-16T11:31:00.202Z,5.34
2022-11-16T11:34:26.202Z,5.13
2022-11-16T11:37:28.966Z,5.49
2022-11-16T11:40:32.004Z,5.28
2022-11-16T11:43:35.199Z,5.32
2022-11-16T11:47:23.706Z,5.23
2022-11-16T11:50:11.521Z,5.01
2022-11-16T11:53:32.970Z,5.13
2022-11-16T11:56:35.912Z,4.98
2022-11-16T11:59:38.702Z,5.33
2022-11-16T12:03:01.760Z,5.12
2022-11-16T12:06:12.132Z,5.16
2022-11-16T12:09:27.069Z,5.03
2022-11-16T12:12:36.164Z,5.17
2022-11-16T12:15:39.910Z,4.73
2022-11-16T12:18:42.713Z,4.96
2022-11-16T12:21:54.488Z,5.12
2022-11-16T12:25:10.581Z,4.81
2022-11-16T12:28:31.701Z,5.08
2022-11-16T12:31:43.786Z,5.22
2022-11-16T12:34:46.521Z,5.38
2022-11-16T12:37:59.422Z,5.15
2022-11-16T12:41:17.590Z,5.26
2022-11-16T12:44:26.516Z,5.15
2022-11-16T12:47:42.503Z,4.86
2022-11-16T12:50:45.267Z,4.71
2022-11-16T12:54:06.683Z,4.88
2022-11-16T12:57:09.479Z,4.98
2022-11-16T13:00:15.831Z,5.26
2022-11-16T13:03:20.725Z,5.13
2022-11-16T13:06:31.322Z,4.98
2022-11-16T13:09:36.350Z,4.70
2022-11-16T13:12:39.096Z,4.82
2022-11-16T13:15:42.013Z,5.03
2022-11-16T13:18:45.003Z,5.17
2022-11-16T13:21:50.885Z,5.22
2022-11-16T13:24:59.755Z,5.29
2022-11-16T13:28:11.842Z,5.20
2022-11-16T13:31:22.474Z,5.34
2022-11-16T13:34:26.155Z,5.48
2022-11-16T13:37:36.034Z,5.40
2022-11-16T13:40:38.962Z,5.59
2022-11-16T13:43:47.779Z,5.09
2022-11-16T13:46:56.450Z,5.36
2022-11-16T13:50:00.165Z,5.59
2022-11-16T13:56:29.297Z,5.60
2022-11-16T13:59:33.331Z,5.55
2022-11-16T14:02:37.557Z,5.44
2022-11-16T14:05:41.846Z,5.83
2022-11-16T14:08:45.244Z,5.98
2022-11-16T14:11:48.023Z,5.81
2022-11-16T14:15:05.029Z,5.92
2022-11-16T14:18:07.814Z,5.68
2022-11-16T14:21:11.401Z,5.73
2022-11-16T14:24:24.426Z,5.94
2022-11-16T14:27:33.946Z,5.98
2022-11-16T14:30:44.462Z,6.09
2022-11-16T14:33:49.812Z,5.89
2022-11-16T14:36:53.692Z,5.98
2022-11-16T14:40:01.694Z,5.84
2022-11-16T14:43:16.827Z,6.12
2022-11-16T14:46:30.584Z,6.40
2022-11-16T14:49:34.623Z,6.70
2022-11-16T14:52:38.509Z,6.47
2022-11-16T14:55:42.073Z,6.55
2022-11-16T14:58:56.194Z,6.75
2022-11-16T15:02:12.398Z,6.87
2022-11-16T15:05:15.880Z,6.91
2022-11-16T15:08:20.565Z,6.65
2022-11-16T15:11:25.595Z,6.89
2022-11-16T15:14:32.342Z,7.08
2022-11-16T15:17:35.255Z,6.94
2022-11-16T15:20:38.847Z,7.14
2022-11-16T15:24:02.101Z,7.40
2022-11-16T15:27:09.840Z,7.72
2022-11-16T15:30:18.657Z,7.87
2022-11-16T15:33:37.745Z,8.05
2022-11-16T15:36:41.251Z,7.89
2022-11-16T15:39:44.176Z,7.40
2022-11-16T15:42:46.886Z,7.63
2022-11-16T15:45:49.700Z,7.61
2022-11-16T15:48:52.715Z,7.69
2022-11-16T15:51:55.572Z,7.84
2022-11-16T15:54:58.491Z,8.05
2022-11-16T15:58:11.178Z,8.22
2022-11-16T16:01:14.613Z,8.26
2022-11-16T16:04:18.242Z,8.09
2022-11-16T16:07:39.976Z,8.47
2022-11-16T16:10:43.050Z,8.09
2022-11-16T16:13:56.756Z,8.56
2022-11-16T16:17:00.144Z,8.39
2022-11-16T16:20:07.298Z,8.68
2022-11-16T16:23:12.256Z,8.51
2022-11-16T16:26:15.643Z,8.72
2022-11-16T16:29:18.459Z,8.49
2022-11-16T16:32:28.209Z,8.61
2022-11-16T16:35:31.011Z,8.97
2022-11-16T16:38:33.899Z,8.77
2022-11-16T16:41:36.677Z,8.68
2022-11-16T16:44:39.537Z,8.81
2022-11-16T16:47:42.772Z,8.83
2022-11-16T16:50:45.837Z,8.72
2022-11-16T16:53:48.864Z,9.04
2022-11-16T16:56:52.311Z,9.33
2022-11-16T16:59:55.356Z,9.77
2022-11-16T17:02:58.414Z,9.56
2022-11-16T17:06:04.403Z,9.72
2022-11-16T17:09:07.687Z,9.80
2022-11-16T17:12:10.763Z,10.23
2022-11-16T17:15:19.134Z,10.50
2022-11-16T17:18:22.830Z,10.20
2022-11-16T17:21:27.020Z,10.58
2022-11-16T17:24:32.918Z,10.69
2022-11-16T17:27:35.956Z,10.32
2022-11-16T17:30:39.033Z,10.65
2022-11-16T17:33:44.075Z,10.74
2022-11-16T17:36:47.241Z,10.76
2022-11-16T17:39:50.270Z,10.95
2022-11-16T17:42:53.315Z,11.03
2022-11-16T17:46:16.407Z,11.06
2022-11-16T17:49:19.324Z,10.64
2022-11-16T17:52:22.032Z,10.58
2022-11-16T17:55:33.968Z,10.28
2022-11-16T17:58:39.195Z,10.56
2022-11-16T18:01:42.575Z,10.84
2022-11-16T18:04:50.775Z,10.79
2022-11-16T18:07:54.155Z,10.56
2022-11-16T18:10:57.455Z,10.72
2022-11-16T18:14:00.850Z,11.03
2022-11-16T18:17:04.040Z,10.78
2022-11-16T18:20:07.024Z,10.61
2022-11-16T18:23:09.849Z,11.67
2022-11-16T18:26:14.415Z,12.05
2022-11-16T18:29:17.166Z,11.70
2022-11-16T18:32:20.069Z,12.10
2022-11-16T18:35:22.916Z,11.19
2022-11-16T18:38:25.692Z,11.40
2022-11-16T18:41:28.864Z,11.73
2022-11-16T18:44:31.636Z,12.26
2022-11-16T18:47:34.733Z,12.14
2022-11-16T18:50:37.659Z,12.10
2022-11-16T18:53:40.605Z,12.30
2022-11-16T18:56:45.647Z,12.61
2022-11-16T18:59:48.400Z,12.23
2022-11-16T19:02:51.177Z,11.90
2022-11-16T19:05:57.751Z,12.02
2022-11-16T19:09:00.554Z,12.33
2022-11-16T19:12:03.408Z,12.45
2022-11-16T19:15:06.584Z,12.78
2022-11-16T19:18:21.235Z,12.75
2022-11-16T19:21:24.654Z,13.10
2022-11-16T19:24:27.463Z,12.43
2022-11-16T19:27:30.773Z,13.26
2022-11-16T19:30:33.539Z,13.48
2022-11-16T19:33:36.769Z,13.05
2022-11-16T19:36:39.754Z,13.48
2022-11-16T19:39:42.738Z,13.03
2022-11-16T19:42:46.134Z,13.29
2022-11-16T19:45:48.965Z,13.37
2022-11-16T19:48:54.053Z,13.53
2022-11-16T19:51:58.085Z,13.86
2022-11-16T19:55:00.913Z,13.09
2022-11-16T19:58:03.931Z,13.13
2022-11-16T20:01:13.762Z,13.33
2022-11-16T20:04:16.595Z,12.70
2022-11-16T20:07:19.339Z,12.74
2022-11-16T20:10:22.175Z,12.60
2022-11-16T20:13:24.911Z,12.64
2022-11-16T20:16:35.430Z,12.76
2022-11-16T20:19:41.025Z,12.68
2022-11-16T20:22:44.927Z,12.46
2022-11-16T20:25:47.658Z,12.93
2022-11-16T20:28:50.788Z,13.33
2022-11-16T20:31:53.513Z,13.81
2022-11-16T20:34:56.269Z,14.45
2022-11-16T20:37:58.993Z,13.96
2022-11-16T20:41:15.808Z,14.46
2022-11-16T20:44:18.800Z,14.30
2022-11-16T20:47:23.930Z,14.34
2022-11-16T20:50:26.832Z,14.28
2022-11-16T20:53:29.670Z,14.44
2022-11-16T20:56:32.395Z,14.25
2022-11-16T20:59:35.396Z,14.08
2022-11-16T21:02:38.128Z,14.39
2022-11-16T21:05:41.699Z,14.96
2022-11-16T21:08:47.267Z,15.49
2022-11-16T21:11:50.059Z,14.74
2022-11-16T21:14:52.820Z,14.52
2022-11-16T21:17:55.623Z,14.82
2022-11-16T21:21:02.037Z,14.04
2022-11-16T21:24:04.941Z,13.55
2022-11-16T21:27:07.670Z,13.02
2022-11-16T21:30:10.731Z,12.92
2022-11-16T21:33:13.498Z,12.82
2022-11-16T21:36:19.087Z,12.71
2022-11-16T21:39:24.667Z,12.70
2022-11-16T21:42:28.371Z,12.29
2022-11-16T21:45:31.202Z,12.12
2022-11-16T21:48:34.364Z,12.42
2022-11-16T21:51:39.435Z,12.42
2022-11-16T21:54:42.510Z,12.65
2022-11-16T21:57:45.209Z,12.44
2022-11-16T22:00:47.986Z,12.67
2022-11-16T22:03:50.839Z,12.92
2022-11-16T22:06:53.649Z,12.95
2022-11-16T22:09:59.311Z,13.11
2022-11-16T22:13:02.328Z,13.14
2022-11-16T22:16:08.637Z,12.48
2022-11-16T22:19:11.422Z,12.40
2022-11-16T22:22:16.531Z,12.39
2022-11-16T22:25:19.357Z,12.39
2022-11-16T22:40:54.346Z,16.35
2022-11-16T22:43:57.448Z,13.33
2022-11-16T22:47:00.697Z,12.55
2022-11-16T22:50:04.627Z,12.04
2022-11-16T22:53:07.752Z,11.34
2022-11-16T22:56:11.490Z,11.44
2022-11-16T22:59:15.899Z,11.22
2022-11-16T23:02:19.048Z,11.19
2022-11-16T23:05:22.139Z,10.97
2022-11-16T23:08:26.742Z,10.43
2022-11-16T23:11:29.896Z,10.51
2022-11-16T23:14:35.143Z,10.27
2022-11-16T23:17:38.294Z,9.91
2022-11-16T23:20:41.452Z,9.72
2022-11-16T23:23:44.633Z,9.78
2022-11-16T23:26:47.880Z,9.75
2022-11-16T23:29:53.448Z,9.51
2022-11-16T23:32:56.731Z,9.56
2022-11-16T23:35:59.884Z,9.43
2022-11-16T23:39:05.367Z,9.26
2022-11-16T23:42:12.154Z,9.09
2022-11-16T23:45:17.833Z,9.08
2022-11-16T23:48:21.046Z,9.01
2022-11-16T23:51:24.532Z,8.94
2022-11-16T23:54:27.757Z,8.82
2022-11-16T23:57:30.928Z,8.75
